Time;durP1;ratioP1;P1;durP2;ratioP2;P2;SDS_P1;SDS_P2;PMS_P1;PMS_P2;Temp;Humidity;BMP_temperature;BMP_pressure;BME280_temperature;BME280_humidity;BME280_pressure;Samples;Min_cycle;Max_cycle;Signal;HPM_P1;HPM_P2
2022/12/03 00:00:09;;;;;;;39.58;16.02;;;;;;;-5.00;100.00;100418.16;5018968;28;20062;-58
2022/12/03 00:02:36;;;;;;;36.95;14.55;;;;;;;-5.21;100.00;100408.81;5019399;28;20045;-59
2022/12/03 00:05:02;;;;;;;44.35;15.48;;;;;;;-4.98;100.00;100417.91;5018804;28;20192;-57
2022/12/03 00:07:28;;;;;;;37.65;14.02;;;;;;;-4.88;100.00;100428.03;5019064;28;20089;-59
2022/12/03 00:09:55;;;;;;;35.95;14.52;;;;;;;-4.93;100.00;100426.06;5018897;28;20148;-59
2022/12/03 00:12:22;;;;;;;36.83;14.93;;;;;;;-5.03;100.00;100415.09;5018977;28;20141;-58
2022/12/03 00:14:48;;;;;;;38.75;14.20;;;;;;;-4.80;100.00;100430.34;5019048;28;20057;-59
2022/12/03 00:17:14;;;;;;;35.80;13.90;;;;;;;-5.06;100.00;100400.34;5019053;28;20058;-57
2022/12/03 00:19:41;;;;;;;34.20;14.52;;;;;;;-4.91;100.00;100426.63;5018889;28;20054;-61
2022/12/03 00:22:07;;;;;;;38.80;14.60;;;;;;;-4.90;100.00;100441.63;5018777;28;20045;-58
2022/12/03 00:24:33;;;;;;;37.10;14.43;;;;;;;-5.08;100.00;100439.06;5019020;28;20415;-60
2022/12/03 00:27:00;;;;;;;37.75;13.88;;;;;;;-5.16;100.00;100474.13;5018102;28;20057;-55
2022/12/03 00:29:27;;;;;;;36.28;14.52;;;;;;;-4.97;100.00;100500.56;5018736;28;20054;-60
2022/12/03 00:31:53;;;;;;;35.65;14.32;;;;;;;-5.02;100.00;100489.78;5018366;28;20072;-57
2022/12/03 00:34:21;;;;;;;33.30;12.40;;;;;;;-5.17;100.00;100488.56;5018729;28;20133;-55
2022/12/03 00:36:47;;;;;;;31.45;13.95;;;;;;;-4.90;100.00;100526.41;5018356;28;20430;-60
2022/12/03 00:39:14;;;;;;;38.15;13.25;;;;;;;-4.79;100.00;100537.16;5018378;28;20061;-58
2022/12/03 00:41:40;;;;;;;38.75;13.38;;;;;;;-4.79;100.00;100521.09;5018449;28;20403;-57
2022/12/03 00:44:07;;;;;;;37.30;13.30;;;;;;;-5.00;100.00;100493.03;5018307;28;20045;-59
2022/12/03 00:46:33;;;;;;;34.47;13.90;;;;;;;-4.91;100.00;100522.13;5018458;28;20061;-56
2022/12/03 00:48:59;;;;;;;35.95;12.63;;;;;;;-5.17;100.00;100520.66;5018248;28;20120;-59
2022/12/03 00:51:26;;;;;;;34.85;13.75;;;;;;;-4.94;100.00;100578.75;5018642;28;20068;-55
2022/12/03 00:53:52;;;;;;;31.15;13.00;;;;;;;-5.50;100.00;100594.91;5018191;28;20050;-59
2022/12/03 00:56:18;;;;;;;29.75;12.77;;;;;;;-4.99;100.00;100668.50;5018474;28;20434;-58
2022/12/03 00:58:44;;;;;;;30.42;13.32;;;;;;;-4.90;100.00;100660.97;5018087;28;20057;-60
2022/12/03 01:01:11;;;;;;;28.90;12.13;;;;;;;-5.02;100.00;100647.56;5018358;28;20108;-56
2022/12/03 01:03:38;;;;;;;31.77;12.63;;;;;;;-5.38;100.00;100624.34;5018206;28;20253;-56
2022/12/03 01:06:04;;;;;;;32.30;13.25;;;;;;;-5.30;100.00;100676.69;5018206;28;20301;-57
2022/12/03 01:08:31;;;;;;;30.42;11.38;;;;;;;-5.15;100.00;100705.75;5018201;28;20092;-54
2022/12/03 01:10:57;;;;;;;31.50;11.90;;;;;;;-5.25;100.00;100712.41;5017936;28;20056;-59
2022/12/03 01:13:23;;;;;;;33.47;13.75;;;;;;;-5.52;100.00;100729.78;5018058;28;20148;-60
2022/12/03 01:15:49;;;;;;;30.27;12.00;;;;;;;-5.54;100.00;100796.78;5017892;28;20053;-56
2022/12/03 01:18:16;;;;;;;28.17;11.63;;;;;;;-5.54;100.00;100833.38;5018123;28;20046;-57
2022/12/03 01:20:43;;;;;;;26.15;10.70;;;;;;;-5.61;100.00;100844.13;5017817;28;20204;-54
2022/12/03 01:23:09;;;;;;;28.58;12.02;;;;;;;-5.54;100.00;100855.56;5018018;28;20225;-59
2022/12/03 01:25:35;;;;;;;33.05;11.05;;;;;;;-5.75;100.00;100862.09;5017709;28;20342;-54
2022/12/03 01:28:02;;;;;;;29.75;11.35;;;;;;;-5.60;100.00;100893.03;5018101;28;20046;-59
2022/12/03 01:30:28;;;;;;;29.55;11.85;;;;;;;-5.65;100.00;100903.56;5017520;28;20065;-58
2022/12/03 01:32:54;;;;;;;27.75;10.25;;;;;;;-5.78;100.00;100929.31;5017483;28;20076;-56
2022/12/03 01:35:21;;;;;;;28.85;11.73;;;;;;;-5.85;100.00;100965.94;5017680;28;20061;-57
2022/12/03 01:37:47;;;;;;;25.30;11.18;;;;;;;-5.82;100.00;101000.22;5017395;28;20065;-60
2022/12/03 01:40:19;;;;;;;32.70;11.77;;;;;;;-5.80;100.00;101030.22;5017275;28;20060;-55
2022/12/03 01:42:45;;;;;;;27.20;9.80;;;;;;;-5.95;100.00;101038.53;5017564;28;20045;-55
2022/12/03 01:45:22;;;;;;;25.35;10.23;;;;;;;-5.69;100.00;101050.94;5017675;28;20060;-59
2022/12/03 01:47:49;;;;;;;26.35;9.93;;;;;;;-5.70;100.00;101054.66;5017354;28;20061;-55
2022/12/03 01:50:20;;;;;;;32.58;10.85;;;;;;;-5.84;100.00;101039.69;5017739;28;20060;-58
2022/12/03 01:52:47;;;;;;;31.02;12.55;;;;;;;-5.67;100.00;101042.69;5017196;28;20050;-58
2022/12/03 01:55:18;;;;;;;30.95;10.77;;;;;;;-5.92;100.00;101035.41;5017595;28;20131;-57
2022/12/03 01:57:47;;;;;;;26.42;9.73;;;;;;;-5.83;100.00;101046.69;5017424;28;20378;-57
2022/12/03 02:00:15;;;;;;;25.42;10.15;;;;;;;-5.81;100.00;101052.63;5017340;28;20156;-60
2022/12/03 02:02:41;;;;;;;27.80;11.02;;;;;;;-5.71;100.00;101042.31;5017558;28;20323;-57
2022/12/03 02:05:16;;;;;;;27.85;11.18;;;;;;;-5.53;100.00;101040.78;5017043;28;20068;-58
2022/12/03 02:07:42;;;;;;;32.45;10.65;;;;;;;-5.64;100.00;101015.56;5017431;28;20050;-56
2022/12/03 02:10:11;;;;;;;25.77;9.88;;;;;;;-5.74;100.00;101009.84;5017106;28;20081;-58
2022/12/03 02:12:41;;;;;;;26.77;10.45;;;;;;;-5.82;100.00;101010.91;5017453;28;20144;-57
2022/12/03 02:15:09;;;;;;;23.83;9.43;;;;;;;-5.81;100.00;101025.91;5016826;28;20053;-55
2022/12/03 02:17:36;;;;;;;28.85;9.20;;;;;;;-5.87;100.00;101032.09;5017339;28;20054;-56
2022/12/03 02:20:07;;;;;;;24.40;9.27;;;;;;;-5.75;100.00;101029.59;5016865;28;20083;-59
2022/12/03 02:22:40;;;;;;;26.50;10.30;;;;;;;-5.83;100.00;101016.44;5017039;28;20335;-57
2022/12/03 02:25:11;;;;;;;27.58;10.55;;;;;;;-5.74;100.00;101020.53;5016869;28;20049;-58
2022/12/03 02:27:38;;;;;;;28.73;10.05;;;;;;;-5.94;100.00;101015.31;5016880;28;20137;-59
2022/12/03 02:30:07;;;;;;;29.05;9.30;;;;;;;-5.90;100.00;101008.47;5016904;28;20414;-59
2022/12/03 02:32:33;;;;;;;29.77;10.85;;;;;;;-5.91;100.00;101012.19;5016628;28;20192;-58
2022/12/03 02:34:59;;;;;;;25.92;10.40;;;;;;;-5.91;100.00;101006.84;5016961;28;20065;-54
2022/12/03 02:37:31;;;;;;;16.90;7.93;;;;;;;-6.22;100.00;101003.06;5016598;28;20053;-57
2022/12/03 02:40:01;;;;;;;27.90;10.52;;;;;;;-5.85;100.00;101037.22;5017087;28;20374;-55
2022/12/03 02:42:34;;;;;;;25.10;9.25;;;;;;;-5.86;100.00;101015.06;5016572;28;20060;-55
2022/12/03 02:45:05;;;;;;;23.08;9.45;;;;;;;-6.29;100.00;100996.94;5016500;28;20139;-56
2022/12/03 02:47:34;;;;;;;27.75;9.15;;;;;;;-6.36;100.00;101008.63;5016612;28;20085;-54
2022/12/03 02:50:01;;;;;;;25.23;10.57;;;;;;;-5.87;100.00;101034.75;5016389;28;20088;-58
2022/12/03 02:52:28;;;;;;;25.23;9.48;;;;;;;-5.86;100.00;101039.09;5016074;28;20147;-59
2022/12/03 02:54:54;;;;;;;22.67;9.27;;;;;;;-5.69;100.00;101026.06;5016344;28;20050;-56
2022/12/03 02:57:20;;;;;;;24.73;10.00;;;;;;;-5.71;100.00;101012.09;5016522;28;20468;-55
2022/12/03 02:59:47;;;;;;;25.63;10.27;;;;;;;-5.74;100.00;100986.63;5016273;28;20053;-58
2022/12/03 03:02:14;;;;;;;21.77;9.63;;;;;;;-5.70;100.00;100979.00;5016769;28;20058;-57
2022/12/03 03:04:43;;;;;;;25.48;10.65;;;;;;;-5.67;100.00;100979.38;5016283;28;20100;-57
2022/12/03 03:07:09;;;;;;;29.92;10.93;;;;;;;-5.78;100.00;100957.88;5016702;28;20058;-60
2022/12/03 03:09:36;;;;;;;22.92;9.90;;;;;;;-5.60;100.00;100951.81;5016403;28;20054;-60
2022/12/03 03:12:02;;;;;;;22.05;9.45;;;;;;;-5.91;100.00;100930.19;5016139;28;20498;-58
2022/12/03 03:14:29;;;;;;;22.77;9.05;;;;;;;-5.76;100.00;100942.47;5016187;28;20061;-56
2022/12/03 03:16:56;;;;;;;26.80;10.38;;;;;;;-5.76;100.00;100955.84;5016022;28;20089;-55
2022/12/03 03:19:23;;;;;;;25.08;9.60;;;;;;;-5.76;100.00;100953.97;5016202;28;20411;-60
2022/12/03 03:21:49;;;;;;;24.15;9.73;;;;;;;-5.77;100.00;100951.50;5016023;28;20423;-59
2022/12/03 03:24:16;;;;;;;25.67;9.48;;;;;;;-5.77;100.00;100952.31;5016445;28;20050;-56
2022/12/03 03:26:42;;;;;;;21.27;9.52;;;;;;;-6.04;100.00;100962.34;5016106;28;20049;-59
2022/12/03 03:29:09;;;;;;;18.88;8.82;;;;;;;-6.00;100.00;100997.44;5016417;28;20054;-56
2022/12/03 03:31:35;;;;;;;24.45;9.82;;;;;;;-5.78;100.00;101016.66;5015888;28;20056;-56
2022/12/03 03:34:02;;;;;;;19.95;9.10;;;;;;;-5.77;100.00;101011.09;5016418;28;20050;-58
2022/12/03 03:36:29;;;;;;;30.48;10.05;;;;;;;-5.82;100.00;101013.59;5015785;28;20064;-59
2022/12/03 03:38:55;;;;;;;23.95;9.13;;;;;;;-5.71;100.00;101017.44;5015875;28;20054;-59
2022/12/03 03:41:22;;;;;;;22.27;9.80;;;;;;;-5.88;100.00;101010.94;5016136;28;20144;-54
2022/12/03 03:43:49;;;;;;;25.52;9.50;;;;;;;-5.69;100.00;101015.41;5015811;28;20482;-59
2022/12/03 03:46:18;;;;;;;22.83;9.02;;;;;;;-5.75;100.00;101002.88;5016151;28;20119;-58
2022/12/03 03:48:44;;;;;;;24.25;9.60;;;;;;;-5.90;100.00;101000.44;5015708;28;20065;-57
2022/12/03 03:51:12;;;;;;;24.50;9.65;;;;;;;-5.80;100.00;101006.16;5016146;28;20390;-58
2022/12/03 03:53:42;;;;;;;22.95;8.80;;;;;;;-5.96;100.00;100998.69;5015621;28;20423;-58
2022/12/03 03:56:09;;;;;;;23.02;8.80;;;;;;;-5.85;100.00;101008.66;5015962;28;20411;-60
2022/12/03 03:58:35;;;;;;;22.40;9.13;;;;;;;-5.88;100.00;101002.94;5015617;28;20053;-59
2022/12/03 04:01:02;;;;;;;21.58;8.13;;;;;;;-5.88;100.00;100986.91;5016032;28;20054;-60
2022/12/03 04:03:28;;;;;;;21.83;8.95;;;;;;;-5.93;100.00;100993.75;5018363;28;20526;-58
2022/12/03 04:05:55;;;;;;;21.98;9.55;;;;;;;-5.78;100.00;101008.63;5019183;28;20050;-57
2022/12/03 04:08:22;;;;;;;22.45;9.10;;;;;;;-5.89;100.00;100993.28;5018919;28;20057;-57
2022/12/03 04:13:32;;;;;;;22.67;9.55;;;;;;;-5.81;100.00;100998.38;5019189;28;20056;-56
2022/12/03 04:15:58;;;;;;;27.20;9.68;;;;;;;-5.78;100.00;101011.31;5018631;28;20083;-57
2022/12/03 04:18:43;;;;;;;23.00;9.00;;;;;;;-5.89;100.00;101012.81;5019114;28;20107;-56
2022/12/03 04:23:55;;;;;;;21.15;8.07;;;;;;;-5.56;100.00;101025.22;5018681;28;20061;-55
2022/12/03 04:29:05;;;;;;;25.08;8.95;;;;;;;-5.64;100.00;101001.38;5018750;28;20057;-59
2022/12/03 04:37:01;;;;;;;20.42;8.43;;;;;;;-5.59;100.00;100980.19;5018922;28;20378;-54
2022/12/03 04:39:28;;;;;;;21.70;8.75;;;;;;;-5.65;100.00;100987.22;5018236;28;20137;-57
2022/12/03 04:41:54;;;;;;;25.30;10.20;;;;;;;-5.65;100.00;100981.06;5018499;28;20053;-59
2022/12/03 04:44:34;;;;;;;23.65;9.50;;;;;;;-5.66;100.00;100996.28;5018666;28;20050;-59
2022/12/03 04:47:01;;;;;;;25.48;9.75;;;;;;;-5.62;100.00;101013.50;5018202;28;20053;-56
2022/12/03 04:49:28;;;;;;;19.45;8.70;;;;;;;-5.65;100.00;101005.09;5018569;28;20061;-55
2022/12/03 04:51:54;;;;;;;21.75;8.82;;;;;;;-5.48;100.00;101024.94;5018117;28;20415;-58
2022/12/03 04:54:21;;;;;;;20.55;8.13;;;;;;;-5.65;100.00;101011.25;5018287;28;20141;-58
2022/12/03 04:56:48;;;;;;;22.10;8.55;;;;;;;-5.62;100.00;101034.88;5017853;28;20097;-55
2022/12/03 04:59:14;;;;;;;19.80;7.80;;;;;;;-5.57;100.00;101044.91;5018435;28;20435;-57
2022/12/03 05:01:41;;;;;;;23.42;8.82;;;;;;;-5.44;100.00;101044.84;5017995;28;20058;-57
2022/12/03 05:04:07;;;;;;;21.25;8.00;;;;;;;-5.41;100.00;101035.59;5018776;28;20085;-59
2022/12/03 05:06:34;;;;;;;20.25;7.15;;;;;;;-5.50;100.00;101037.69;5017927;28;20101;-57
2022/12/03 05:09:00;;;;;;;19.75;8.30;;;;;;;-5.38;100.00;101052.03;5017836;28;20434;-59
2022/12/03 05:11:27;;;;;;;22.75;8.70;;;;;;;-5.59;100.00;101030.97;5017840;28;20057;-56
2022/12/03 05:13:54;;;;;;;23.00;8.38;;;;;;;-5.47;100.00;101034.59;5017244;28;20049;-56
2022/12/03 05:16:20;;;;;;;22.85;8.43;;;;;;;-5.44;100.00;101044.84;5018049;28;20157;-56
2022/12/03 05:18:46;;;;;;;19.65;8.35;;;;;;;-5.43;100.00;101054.53;5017886;28;20049;-59
2022/12/03 05:21:13;;;;;;;17.65;7.95;;;;;;;-5.40;100.00;101062.09;5018074;28;20065;-59
2022/12/03 05:23:39;;;;;;;15.18;7.47;;;;;;;-5.38;100.00;101068.06;5017660;28;20145;-57
2022/12/03 05:26:05;;;;;;;21.88;8.15;;;;;;;-5.30;100.00;101078.53;5017829;28;20058;-61
2022/12/03 05:28:47;;;;;;;19.85;8.60;;;;;;;-5.28;100.00;101076.44;4985295;28;20481;-57
2022/12/03 05:31:14;;;;;;;17.92;8.25;;;;;;;-5.14;100.00;101079.88;5017881;28;20403;-58
2022/12/03 05:33:40;;;;;;;19.65;8.23;;;;;;;-5.34;100.00;101063.13;5017465;28;20049;-55
2022/12/03 05:36:08;;;;;;;17.75;7.68;;;;;;;-5.36;100.00;101065.19;5017263;28;20046;-56
2022/12/03 05:38:34;;;;;;;20.05;8.35;;;;;;;-5.33;100.00;101081.63;5017690;28;20323;-59
2022/12/03 05:41:00;;;;;;;25.40;8.68;;;;;;;-5.34;100.00;101085.31;5017580;28;20073;-56
2022/12/03 05:43:26;;;;;;;19.83;8.85;;;;;;;-5.05;100.00;101096.50;5017701;28;20045;-56
2022/12/03 05:45:53;;;;;;;17.85;7.30;;;;;;;-5.17;100.00;101082.16;5017357;28;20058;-57
2022/12/03 05:48:20;;;;;;;18.33;7.28;;;;;;;-5.16;100.00;101078.44;5017115;28;20456;-56
2022/12/03 05:50:46;;;;;;;21.17;8.60;;;;;;;-5.48;100.00;101065.84;5017318;28;20516;-59
2022/12/03 05:53:14;;;;;;;20.00;7.20;;;;;;;-5.02;100.00;101099.56;5017701;28;20057;-54
2022/12/03 05:55:40;;;;;;;21.13;8.82;;;;;;;-5.27;100.00;101085.28;5017405;28;20403;-54
2022/12/03 05:58:06;;;;;;;20.90;8.98;;;;;;;-4.92;100.00;101096.44;5017655;28;20069;-59
2022/12/03 06:00:36;;;;;;;22.33;8.65;;;;;;;-5.07;100.00;101072.63;5017323;28;20422;-60
2022/12/03 06:03:04;;;;;;;19.98;8.20;;;;;;;-4.67;100.00;101069.69;5017402;28;20531;-58
2022/12/03 06:05:31;;;;;;;19.90;8.82;;;;;;;-4.74;100.00;101052.88;5017370;28;20050;-58
2022/12/03 06:07:57;;;;;;;19.27;8.25;;;;;;;-4.80;100.00;101043.03;5017250;28;20378;-59
2022/12/03 06:10:25;;;;;;;17.55;7.57;;;;;;;-4.86;100.00;101025.19;5017369;28;20069;-57
2022/12/03 06:12:52;;;;;;;17.20;7.35;;;;;;;-5.08;100.00;101032.75;5016953;28;20426;-59
2022/12/03 06:15:18;;;;;;;17.75;8.57;;;;;;;-4.69;100.00;101055.72;5017183;28;20145;-55
2022/12/03 06:17:45;;;;;;;21.27;8.48;;;;;;;-4.67;100.00;101037.56;5016825;28;20466;-57
2022/12/03 06:20:14;;;;;;;17.10;8.00;;;;;;;-4.61;100.00;101033.22;5017289;28;20159;-54
2022/12/03 06:22:41;;;;;;;18.13;8.25;;;;;;;-4.89;100.00;101005.03;5016728;28;20050;-61
2022/12/03 06:25:09;;;;;;;17.63;8.52;;;;;;;-4.63;100.00;101013.88;5016395;28;20076;-57
2022/12/03 06:27:35;;;;;;;16.38;7.40;;;;;;;-4.87;100.00;100991.44;5016331;28;20058;-57
2022/12/03 06:30:01;;;;;;;16.63;7.43;;;;;;;-4.78;100.00;101008.84;5016940;28;20327;-60
2022/12/03 06:32:28;;;;;;;17.27;8.02;;;;;;;-4.77;100.00;101010.47;5016799;28;20140;-58
2022/12/03 06:34:54;;;;;;;22.90;7.70;;;;;;;-4.79;100.00;101012.56;5016874;28;20049;-58
2022/12/03 06:37:20;;;;;;;21.92;8.27;;;;;;;-4.58;100.00;101030.91;5016557;28;20152;-60
2022/12/03 06:39:47;;;;;;;16.85;7.13;;;;;;;-4.72;100.00;101004.50;5016501;28;20431;-57
2022/12/03 06:42:14;;;;;;;23.88;8.85;;;;;;;-4.51;100.00;101020.16;5016593;28;20076;-58
2022/12/03 06:44:40;;;;;;;23.45;10.73;;;;;;;-4.70;100.00;101019.28;5016520;28;20133;-58
2022/12/03 06:47:06;;;;;;;22.67;9.77;;;;;;;-4.41;100.00;101031.16;5016329;28;20054;-59
2022/12/03 06:49:32;;;;;;;22.50;9.82;;;;;;;-4.31;100.00;101007.38;5016298;28;20140;-57
2022/12/03 06:51:59;;;;;;;29.05;10.60;;;;;;;-4.65;100.00;100990.00;5017028;28;20096;-60
2022/12/03 06:54:25;;;;;;;22.08;9.35;;;;;;;-4.51;100.00;100982.66;5016335;28;20072;-56
2022/12/03 06:56:52;;;;;;;18.80;9.10;;;;;;;-4.46;100.00;100965.94;5016733;28;20053;-59
2022/12/03 06:59:18;;;;;;;21.85;8.07;;;;;;;-4.37;100.00;100954.72;5016537;28;20064;-58
2022/12/03 07:01:44;;;;;;;18.63;8.68;;;;;;;-4.77;100.00;100944.41;5016434;28;20054;-60
2022/12/03 07:04:11;;;;;;;17.52;8.13;;;;;;;-4.28;100.00;100985.53;5016703;28;20046;-57
2022/12/03 07:06:37;;;;;;;17.08;7.70;;;;;;;-4.99;100.00;100959.22;5016130;28;20057;-57
2022/12/03 07:09:03;;;;;;;20.27;7.90;;;;;;;-4.58;100.00;101014.03;5016454;28;20188;-59
2022/12/03 07:11:38;;;;;;;20.00;8.30;;;;;;;-4.65;100.00;101023.97;5016282;28;20085;-58
2022/12/03 07:14:07;;;;;;;14.50;7.55;;;;;;;-4.77;100.00;101056.78;5016484;28;20101;-58
2022/12/03 07:16:34;;;;;;;23.90;8.95;;;;;;;-4.40;100.00;101085.53;5016116;28;20156;-58
2022/12/03 07:19:00;;;;;;;17.00;8.35;;;;;;;-4.54;100.00;101068.78;5016585;28;20054;-55
2022/12/03 07:21:27;;;;;;;24.83;7.55;;;;;;;-4.24;100.00;101084.16;5016240;28;20120;-60
2022/12/03 07:23:53;;;;;;;23.65;9.30;;;;;;;-4.15;100.00;101056.88;5016474;28;20111;-58
2022/12/03 07:26:19;;;;;;;22.33;9.68;;;;;;;-4.11;100.00;101030.47;5015835;28;20442;-56
2022/12/03 07:28:47;;;;;;;23.55;8.82;;;;;;;-4.25;100.00;101035.16;5016210;28;20066;-58
2022/12/03 07:31:14;;;;;;;19.42;8.40;;;;;;;-4.13;100.00;101053.97;5015893;28;20108;-54
2022/12/03 07:33:40;;;;;;;18.73;8.20;;;;;;;-3.85;100.00;101030.19;5016000;28;20141;-54
2022/12/03 07:36:07;;;;;;;22.17;8.60;;;;;;;-3.67;100.00;100993.69;5015992;28;20356;-59
2022/12/03 07:38:33;;;;;;;15.93;7.75;;;;;;;-3.89;100.00;100939.75;5018967;28;20064;-57
2022/12/03 07:41:00;;;;;;;19.45;8.52;;;;;;;-4.03;100.00;100931.88;5019517;28;20060;-58
2022/12/03 07:43:26;;;;;;;18.95;8.50;;;;;;;-3.66;100.00;100964.00;5019201;28;20107;-54
2022/12/03 07:45:52;;;;;;;17.77;7.85;;;;;;;-3.78;100.00;100918.34;5018968;28;20140;-59
2022/12/03 07:48:19;;;;;;;23.45;8.82;;;;;;;-3.73;100.00;100896.25;5019003;28;20545;-58
2022/12/03 07:50:46;;;;;;;16.67;7.80;;;;;;;-3.47;100.00;100878.13;5019439;28;20056;-59
2022/12/03 07:53:12;;;;;;;18.63;7.65;;;;;;;-3.82;100.00;100828.75;5019115;28;20123;-58
2022/12/03 07:55:39;;;;;;;18.27;8.43;;;;;;;-3.70;100.00;100862.78;5019044;28;20425;-57
2022/12/03 07:58:06;;;;;;;19.75;7.65;;;;;;;-4.13;100.00;100861.13;5018857;28;20050;-58
2022/12/03 08:00:32;;;;;;;15.93;7.88;;;;;;;-3.68;100.00;100923.19;5019020;28;20065;-58
2022/12/03 08:02:58;;;;;;;18.65;8.38;;;;;;;-3.64;100.00;100919.00;5018861;28;20437;-56
2022/12/03 08:05:26;;;;;;;17.75;7.85;;;;;;;-3.41;100.00;100879.88;5018953;28;20335;-58
2022/12/03 08:07:52;;;;;;;18.10;7.70;;;;;;;-3.89;100.00;100864.75;5019058;28;20053;-59
2022/12/03 08:10:18;;;;;;;15.48;6.97;;;;;;;-4.11;100.00;100894.69;5018921;28;20060;-55
2022/12/03 08:12:45;;;;;;;21.05;7.22;;;;;;;-3.96;100.00;100934.50;5019241;28;20049;-57
2022/12/03 08:15:14;;;;;;;17.50;7.70;;;;;;;-3.79;100.00;100950.75;5018544;28;20049;-59
2022/12/03 08:17:41;;;;;;;17.45;7.88;;;;;;;-3.45;100.00;100970.69;5018944;28;20066;-60
2022/12/03 08:20:14;;;;;;;16.98;6.78;;;;;;;-3.40;100.00;100927.09;5018436;28;20510;-59
2022/12/03 08:22:42;;;;;;;17.60;8.18;;;;;;;-3.77;100.00;100903.09;5018030;28;20065;-55
2022/12/03 08:25:16;;;;;;;17.20;7.53;;;;;;;-3.15;100.00;100943.03;5018763;28;20335;-57
2022/12/03 08:27:42;;;;;;;15.95;7.38;;;;;;;-3.58;100.00;100903.88;5018355;28;20076;-58
2022/12/03 08:30:12;;;;;;;18.90;7.93;;;;;;;-3.57;100.00;100905.50;5018759;28;20057;-58
2022/12/03 08:32:38;;;;;;;16.98;8.27;;;;;;;-3.48;100.00;100879.19;5018246;28;20119;-57
2022/12/03 08:35:10;;;;;;;20.23;8.73;;;;;;;-3.79;100.00;100863.13;5018805;28;20049;-58
2022/12/03 08:37:37;;;;;;;16.50;7.50;;;;;;;-3.34;100.00;100915.47;5018202;28;20119;-59
2022/12/03 08:40:21;;;;;;;18.00;7.85;;;;;;;-3.30;100.00;100905.91;5018691;28;20137;-55
2022/12/03 08:42:48;;;;;;;21.95;7.50;;;;;;;-3.65;100.00;100881.72;5018113;28;20149;-58
2022/12/03 08:45:40;;;;;;;19.20;8.20;;;;;;;-3.42;100.00;100921.16;5018105;28;20057;-59
2022/12/03 08:48:26;;;;;;;21.60;8.38;;;;;;;-2.91;100.00;100923.22;5003829;28;20061;-54
2022/12/03 08:50:54;;;;;;;16.85;7.80;;;;;;;-2.99;100.00;100858.38;5017990;28;20140;-59
2022/12/03 08:53:29;;;;;;;14.10;7.28;;;;;;;-2.78;100.00;100822.06;5018399;28;20058;-58
2022/12/03 08:55:57;;;;;;;20.10;7.63;;;;;;;-3.36;100.00;100765.53;5017962;28;20108;-56
2022/12/03 08:58:25;;;;;;;15.13;7.20;;;;;;;-3.58;100.00;100799.31;5018160;28;20053;-58
2022/12/03 09:00:56;;;;;;;18.08;7.72;;;;;;;-3.12;100.00;100848.69;5017992;28;20121;-54
2022/12/03 09:03:23;;;;;;;21.08;7.65;;;;;;;-3.17;100.00;100837.81;5018146;28;20045;-57
2022/12/03 09:05:49;;;;;;;16.50;7.70;;;;;;;-3.41;100.00;100819.03;5017768;28;20050;-58
2022/12/03 09:08:16;;;;;;;14.20;6.88;;;;;;;-2.69;100.00;100867.09;5017778;28;20468;-55
2022/12/03 09:10:42;;;;;;;15.05;7.53;;;;;;;-2.90;100.00;100812.16;5018116;28;20057;-60
2022/12/03 09:13:09;;;;;;;19.58;7.88;;;;;;;-3.06;100.00;100766.44;5017791;28;20057;-57
2022/12/03 09:15:35;;;;;;;15.10;7.55;;;;;;;-2.30;100.00;100769.81;5018382;28;20080;-61
2022/12/03 09:18:01;;;;;;;21.40;8.40;;;;;;;-2.57;100.00;100671.03;5017692;28;20148;-56
2022/12/03 09:20:28;;;;;;;16.27;7.40;;;;;;;-2.99;100.00;100620.38;5018187;28;20071;-58
2022/12/03 09:22:54;;;;;;;12.75;6.93;;;;;;;-2.91;100.00;100595.81;5017796;28;20057;-55
2022/12/03 09:25:20;;;;;;;12.65;6.82;;;;;;;-2.16;100.00;100643.03;5018118;28;20192;-57
2022/12/03 09:27:47;;;;;;;18.35;8.18;;;;;;;-2.86;100.00;100581.69;5017570;28;20362;-59
2022/12/03 09:30:14;;;;;;;19.23;7.75;;;;;;;-2.60;100.00;100585.59;5017740;28;20108;-55
2022/12/03 09:32:41;;;;;;;20.67;6.93;;;;;;;-2.77;100.00;100542.63;5017742;28;20050;-59
2022/12/03 09:35:08;;;;;;;17.08;8.35;;;;;;;-3.13;100.00;100581.47;5017695;28;20366;-58
2022/12/03 09:37:34;;;;;;;16.45;7.80;;;;;;;-2.78;100.00;100615.38;5017758;28;20140;-59
2022/12/03 09:40:00;;;;;;;16.27;8.10;;;;;;;-2.58;100.00;100625.66;5017580;28;20054;-58
2022/12/03 09:42:27;;;;;;;14.07;7.55;;;;;;;-2.00;100.00;100600.25;5017625;28;20049;-60
2022/12/03 09:44:53;;;;;;;19.73;7.75;;;;;;;-2.85;100.00;100487.50;5017368;28;20370;-60
2022/12/03 09:47:20;;;;;;;18.77;8.35;;;;;;;-2.39;100.00;100570.66;5017851;28;20207;-59
2022/12/03 09:49:47;;;;;;;18.27;8.23;;;;;;;-2.70;100.00;100532.59;5017295;28;20045;-56
2022/12/03 09:52:20;;;;;;;16.25;7.85;;;;;;;-2.62;100.00;100561.69;5017713;28;20374;-58
2022/12/03 09:54:47;;;;;;;13.95;6.95;;;;;;;-3.08;100.00;100525.22;5017052;28;20140;-58
2022/12/03 09:57:13;;;;;;;19.73;8.60;;;;;;;-2.55;100.00;100612.56;5017084;28;20045;-59
2022/12/03 09:59:39;;;;;;;13.80;7.28;;;;;;;-3.33;100.00;100601.47;5017152;28;20050;-57
2022/12/03 10:02:16;;;;;;;13.90;6.68;;;;;;;-2.91;100.00;100689.75;5017390;28;20060;-59
2022/12/03 10:04:43;;;;;;;16.25;6.78;;;;;;;-3.11;100.00;100703.56;5017161;28;20093;-59
2022/12/03 10:07:10;;;;;;;18.15;8.38;;;;;;;-2.92;100.00;100740.97;5017071;28;20053;-58
2022/12/03 10:09:36;;;;;;;18.88;8.70;;;;;;;-2.83;100.00;100750.31;5017230;28;20053;-61
2022/12/03 10:12:03;;;;;;;20.20;7.00;;;;;;;-3.14;100.00;100711.25;5016860;28;20144;-54
2022/12/03 10:14:29;;;;;;;14.32;7.35;;;;;;;-3.16;100.00;100761.69;5017323;28;20096;-58
2022/12/03 10:16:56;;;;;;;19.38;7.00;;;;;;;-3.06;100.00;100812.88;5016783;28;20053;-57
2022/12/03 10:19:25;;;;;;;18.63;8.00;;;;;;;-2.93;100.00;100819.84;5017340;28;20076;-55
2022/12/03 10:21:52;;;;;;;17.75;8.18;;;;;;;-2.97;100.00;100789.97;5016989;28;20045;-60
2022/12/03 10:24:22;;;;;;;13.73;7.75;;;;;;;-3.06;100.00;100769.13;5016895;28;20575;-59
2022/12/03 10:26:51;;;;;;;24.73;9.57;;;;;;;-3.19;100.00;100765.63;5017055;28;20110;-56
2022/12/03 10:29:19;;;;;;;19.65;8.70;;;;;;;-2.79;100.00;100798.94;5016656;28;20049;-61
2022/12/03 10:31:53;;;;;;;17.83;7.80;;;;;;;-3.24;100.00;100752.09;5016737;28;20141;-58
2022/12/03 10:34:24;;;;;;;19.20;8.75;;;;;;;-3.13;100.00;100804.13;5016883;28;20050;-55
2022/12/03 10:37:08;;;;;;;16.50;7.95;;;;;;;-2.94;100.00;100792.19;5016803;28;20093;-56
2022/12/03 10:39:52;;;;;;;14.57;7.80;;;;;;;-2.93;100.00;100783.09;5016509;28;20057;-58
2022/12/03 10:42:19;;;;;;;21.02;9.07;;;;;;;-3.14;100.00;100795.25;5016766;28;20065;-60
2022/12/03 10:44:45;;;;;;;21.83;8.65;;;;;;;-3.01;100.00;100772.72;5016411;28;20100;-59
2022/12/03 10:47:13;;;;;;;15.88;8.20;;;;;;;-2.79;100.00;100764.88;5016267;28;20053;-56
2022/12/03 10:49:41;;;;;;;17.52;7.18;;;;;;;-3.14;100.00;100733.53;5016761;28;20050;-60
2022/12/03 10:52:20;;;;;;;19.15;6.45;;;;;;;-3.17;100.00;100750.09;5016349;28;20367;-60
2022/12/03 10:54:46;;;;;;;18.25;8.07;;;;;;;-3.09;100.00;100765.03;5016695;28;20112;-57
2022/12/03 10:57:13;;;;;;;15.85;7.00;;;;;;;-3.17;100.00;100776.13;5016196;28;20049;-58
2022/12/03 10:59:41;;;;;;;18.48;7.43;;;;;;;-2.92;100.00;100816.94;5016648;28;20059;-59
2022/12/03 11:02:13;;;;;;;17.45;8.68;;;;;;;-3.04;100.00;100800.03;5016377;28;20053;-59
2022/12/03 11:04:40;;;;;;;23.33;9.43;;;;;;;-2.94;100.00;100810.16;5016104;28;20046;-60
2022/12/03 11:07:14;;;;;;;18.73;7.88;;;;;;;-3.15;100.00;100839.22;5016509;28;20141;-57
2022/12/03 11:09:43;;;;;;;19.00;9.02;;;;;;;-3.10;100.00;100843.88;5016242;28;20050;-57
2022/12/03 11:12:19;;;;;;;20.95;9.15;;;;;;;-3.13;100.00;100863.16;5017607;28;20085;-61
2022/12/03 11:15:05;;;;;;;16.88;7.82;;;;;;;-3.10;100.00;100870.69;5019725;28;20107;-59
2022/12/03 11:17:43;;;;;;;16.67;7.07;;;;;;;-2.82;100.00;100877.25;5019957;28;20058;-60
2022/12/03 11:20:27;;;;;;;19.77;9.07;;;;;;;-3.17;100.00;100846.69;5019405;28;20481;-57
2022/12/03 11:22:55;;;;;;;20.15;8.50;;;;;;;-2.96;100.00;100885.53;5018765;28;20057;-57